createdAt,value
2019-03-13T00:01:10.421Z,6.30
2019-03-13T00:03:16.045Z,6.30
2019-03-13T00:07:38.763Z,6.30
2019-03-13T00:09:44.389Z,6.30
2019-03-13T00:11:50.573Z,6.30
2019-03-13T00:13:56.166Z,6.40
2019-03-13T00:16:21.781Z,6.40
2019-03-13T00:18:26.233Z,6.20
2019-03-13T00:20:34.140Z,6.20
2019-03-13T00:22:44.321Z,6.20
2019-03-13T00:25:08.995Z,6.20
2019-03-13T00:27:27.217Z,6.20
2019-03-13T00:29:32.498Z,6.30
2019-03-13T00:36:39.361Z,6.30
2019-03-13T00:38:45.348Z,6.40
2019-03-13T00:40:50.285Z,6.30
2019-03-13T00:42:55.045Z,6.30
2019-03-13T00:45:19.868Z,6.40
2019-03-13T00:47:24.383Z,6.40
2019-03-13T00:49:29.038Z,6.30
2019-03-13T00:51:36.820Z,6.30
2019-03-13T00:53:40.396Z,6.30
2019-03-13T00:58:42.314Z,6.30
2019-03-13T01:01:12.088Z,6.30
2019-03-13T01:03:36.352Z,6.30
2019-03-13T01:28:47.930Z,6.30
2019-03-13T01:31:32.522Z,6.30
2019-03-13T01:37:00.117Z,6.40
2019-03-13T01:39:13.100Z,6.50
2019-03-13T01:41:29.022Z,6.40
2019-03-13T01:43:34.090Z,6.40
2019-03-13T01:45:39.864Z,6.40
2019-03-13T01:47:44.479Z,6.40
2019-03-13T01:49:49.017Z,6.50
2019-03-13T01:51:54.236Z,6.50
2019-03-13T01:54:03.383Z,6.40
2019-03-13T01:56:08.070Z,6.40
2019-03-13T01:58:13.948Z,6.40
2019-03-13T02:00:41.530Z,6.30
2019-03-13T02:05:30.666Z,6.20
2019-03-13T02:07:48.471Z,6.20
2019-03-13T02:09:53.048Z,6.10
2019-03-13T02:12:17.214Z,6.20
2019-03-13T02:14:22.220Z,6.20
2019-03-13T02:16:27.109Z,6.10
2019-03-13T02:18:31.942Z,6.20
2019-03-13T02:20:36.581Z,6.10
2019-03-13T02:23:02.615Z,6.10
2019-03-13T02:25:07.969Z,6.10
2019-03-13T02:27:13.455Z,6.20
2019-03-13T02:29:18.563Z,6.20
2019-03-13T02:31:24.823Z,6.20
2019-03-13T02:33:31.086Z,6.20
2019-03-13T02:35:36.366Z,6.20
2019-03-13T02:37:43.135Z,6.20
2019-03-13T02:39:47.678Z,6.30
2019-03-13T02:41:54.037Z,6.20
2019-03-13T02:44:17.678Z,6.10
2019-03-13T02:46:22.256Z,6.10
2019-03-13T02:53:20.991Z,6.30
2019-03-13T02:55:25.639Z,6.30
2019-03-13T02:57:49.403Z,6.30
2019-03-13T02:59:54.164Z,6.40
2019-03-13T03:02:20.333Z,6.50
2019-03-13T03:04:26.635Z,6.50
2019-03-13T03:06:31.692Z,6.40
2019-03-13T03:08:37.721Z,6.40
2019-03-13T03:10:42.549Z,6.30
2019-03-13T03:13:07.191Z,6.40
2019-03-13T03:17:55.095Z,6.40
2019-03-13T03:20:00.875Z,6.40
2019-03-13T03:22:05.345Z,6.40
2019-03-13T03:24:11.098Z,6.50
2019-03-13T03:26:16.718Z,6.50
2019-03-13T03:28:22.326Z,6.50
2019-03-13T03:30:27.038Z,6.50
2019-03-13T03:32:32.530Z,6.50
2019-03-13T03:34:37.019Z,6.40
2019-03-13T03:36:41.648Z,6.40
2019-03-13T03:41:03.692Z,6.30
2019-03-13T03:43:08.173Z,6.30
2019-03-13T03:45:17.311Z,6.20
2019-03-13T03:47:22.237Z,6.20
2019-03-13T03:49:46.080Z,6.20
2019-03-13T03:51:51.277Z,6.20
2019-03-13T03:54:15.088Z,6.20
2019-03-13T03:56:31.128Z,6.20
2019-03-13T03:58:49.164Z,6.10
2019-03-13T04:00:56.587Z,6.20
2019-03-13T04:03:04.836Z,6.20
2019-03-13T04:05:10.562Z,6.20
2019-03-13T04:07:15.955Z,6.20
2019-03-13T04:09:39.591Z,6.30
2019-03-13T04:11:45.151Z,6.30
2019-03-13T04:13:50.117Z,6.20
2019-03-13T04:15:54.769Z,6.20
2019-03-13T04:21:10.108Z,6.30
2019-03-13T04:23:03.578Z,6.40
2019-03-13T04:25:46.097Z,6.50
2019-03-13T04:27:50.638Z,6.50
2019-03-13T04:29:55.371Z,6.60
2019-03-13T04:32:00.039Z,6.50
2019-03-13T04:34:19.071Z,6.60
2019-03-13T04:36:25.076Z,6.60
2019-03-13T04:38:29.801Z,6.60
2019-03-13T04:40:34.628Z,6.60
2019-03-13T04:42:40.863Z,6.50
2019-03-13T04:44:46.176Z,6.50
2019-03-13T04:46:51.037Z,6.60
2019-03-13T04:48:56.053Z,6.70
2019-03-13T04:51:19.857Z,6.70
2019-03-13T04:53:24.952Z,6.70
2019-03-13T04:55:48.445Z,6.70
2019-03-13T04:57:52.886Z,6.70
2019-03-13T04:59:58.258Z,6.70
2019-03-13T05:02:02.695Z,6.80
2019-03-13T05:04:07.231Z,6.80
2019-03-13T05:06:22.207Z,6.80
2019-03-13T05:08:45.023Z,6.80
2019-03-13T05:10:45.394Z,6.80
2019-03-13T05:12:49.965Z,6.80
2019-03-13T05:14:54.706Z,6.90
2019-03-13T05:16:59.177Z,6.90
2019-03-13T05:19:04.702Z,6.80
2019-03-13T05:21:10.396Z,6.80
2019-03-13T05:23:34.260Z,6.80
2019-03-13T05:25:38.816Z,6.90
2019-03-13T05:32:11.838Z,7.10
2019-03-13T05:34:18.010Z,7.10
2019-03-13T05:36:22.765Z,7.00
2019-03-13T05:38:28.796Z,7.00
2019-03-13T05:40:33.178Z,7.00
2019-03-13T05:47:41.396Z,6.90
2019-03-13T05:49:47.359Z,7.00
2019-03-13T05:51:52.223Z,6.90
2019-03-13T05:53:57.316Z,6.90
2019-03-13T05:56:23.846Z,7.00
2019-03-13T05:58:28.616Z,7.00
2019-03-13T06:00:33.270Z,7.00
2019-03-13T06:02:56.818Z,7.00
2019-03-13T06:05:01.500Z,7.10
2019-03-13T06:07:06.030Z,7.00
2019-03-13T06:09:10.733Z,7.10
2019-03-13T06:11:17.621Z,7.10
2019-03-13T06:13:22.259Z,7.20
2019-03-13T06:15:26.962Z,7.10
2019-03-13T06:17:34.517Z,7.10
2019-03-13T06:19:42.747Z,7.10
2019-03-13T06:21:47.372Z,7.00
2019-03-13T06:23:52.276Z,7.10
2019-03-13T06:25:57.103Z,7.20
2019-03-13T06:28:03.126Z,7.20
2019-03-13T06:30:26.718Z,7.20
2019-03-13T06:32:43.059Z,7.20
2019-03-13T06:34:48.379Z,7.20
2019-03-13T06:36:52.776Z,7.20
2019-03-13T06:38:58.540Z,7.10
2019-03-13T06:41:06.752Z,7.20
2019-03-13T06:43:11.318Z,7.20
2019-03-13T06:45:16.081Z,7.20
2019-03-13T06:47:20.644Z,7.10
2019-03-13T06:49:25.191Z,7.10
2019-03-13T06:54:02.022Z,7.10
2019-03-13T06:56:06.828Z,7.10
2019-03-13T06:58:11.292Z,7.10
2019-03-13T07:00:46.985Z,7.20
2019-03-13T07:03:10.508Z,7.10
2019-03-13T07:05:32.290Z,7.10
2019-03-13T07:10:13.288Z,7.10
2019-03-13T07:12:48.668Z,7.10
2019-03-13T07:15:31.967Z,7.10
2019-03-13T07:18:01.995Z,7.10
2019-03-13T07:20:21.054Z,7.10
2019-03-13T07:22:39.231Z,7.10
2019-03-13T07:24:57.558Z,7.20
2019-03-13T07:27:17.953Z,7.20
2019-03-13T07:29:31.471Z,7.10
2019-03-13T07:31:56.579Z,7.10
2019-03-13T07:34:15.125Z,7.10
2019-03-13T07:36:44.092Z,7.10
2019-03-13T07:39:09.725Z,7.10
2019-03-13T07:41:36.982Z,7.10
2019-03-13T07:44:03.338Z,7.30
2019-03-13T07:46:26.871Z,7.30
2019-03-13T07:49:09.769Z,7.30
2019-03-13T07:54:14.091Z,7.30
2019-03-13T07:56:37.819Z,7.40
2019-03-13T07:59:02.743Z,7.40
2019-03-13T08:01:26.650Z,7.40
2019-03-13T08:03:50.484Z,7.30
2019-03-13T08:06:14.228Z,7.30
2019-03-13T08:08:43.614Z,7.40
2019-03-13T08:11:19.174Z,7.40
2019-03-13T08:13:42.694Z,7.40
2019-03-13T08:18:47.212Z,7.20
2019-03-13T08:21:13.144Z,7.20
2019-03-13T08:23:36.450Z,7.20
2019-03-13T08:25:59.903Z,7.20
2019-03-13T08:28:23.582Z,7.10
2019-03-13T08:31:08.257Z,7.10
2019-03-13T08:33:23.237Z,7.00
2019-03-13T08:35:51.634Z,6.90
2019-03-13T08:38:03.513Z,7.00
2019-03-13T08:40:26.304Z,7.00
2019-03-13T08:42:35.965Z,7.00
2019-03-13T08:44:47.841Z,7.10
2019-03-13T08:47:17.705Z,7.00
2019-03-13T08:49:44.013Z,7.00
2019-03-13T08:51:55.035Z,7.10
2019-03-13T08:56:44.759Z,7.20
2019-03-13T08:59:08.156Z,7.30
2019-03-13T09:01:52.185Z,7.30
2019-03-13T09:04:15.851Z,7.30
2019-03-13T09:06:41.914Z,7.30
2019-03-13T09:08:58.708Z,7.30
2019-03-13T09:11:46.409Z,7.40
2019-03-13T09:14:11.551Z,7.40
2019-03-13T09:16:25.729Z,7.40
2019-03-13T09:18:50.208Z,7.40
2019-03-13T09:23:40.595Z,7.40
2019-03-13T09:25:54.768Z,7.30
2019-03-13T09:28:18.187Z,7.40
2019-03-13T09:30:42.990Z,7.40
2019-03-13T09:35:38.552Z,7.40
2019-03-13T09:40:44.051Z,7.50
2019-03-13T09:43:07.445Z,7.50
2019-03-13T09:45:30.838Z,7.50
2019-03-13T09:47:45.763Z,7.50
2019-03-13T09:50:07.531Z,7.50
2019-03-13T09:55:25.132Z,7.40
2019-03-13T09:58:07.485Z,7.30
2019-03-13T10:03:03.081Z,7.40
2019-03-13T10:05:27.926Z,7.40
2019-03-13T10:07:55.479Z,7.40
2019-03-13T10:10:19.302Z,7.40
2019-03-13T10:12:39.201Z,7.40
2019-03-13T10:15:11.437Z,7.30
2019-03-13T10:20:10.809Z,7.40
2019-03-13T10:25:15.465Z,7.60
2019-03-13T10:27:32.558Z,7.70
2019-03-13T10:30:17.428Z,7.80
2019-03-13T10:32:41.163Z,7.70
2019-03-13T10:35:04.498Z,7.70
2019-03-13T10:37:48.650Z,7.70
2019-03-13T10:40:15.302Z,7.80
2019-03-13T10:42:45.604Z,7.80
2019-03-13T10:45:08.972Z,7.80
2019-03-13T10:47:28.365Z,7.80
2019-03-13T10:49:54.461Z,7.70
2019-03-13T10:52:10.416Z,7.60
2019-03-13T10:54:34.019Z,7.70
2019-03-13T10:56:57.455Z,7.80
2019-03-13T10:59:12.435Z,7.70
2019-03-13T11:01:38.852Z,7.80
2019-03-13T11:03:53.899Z,7.80
2019-03-13T11:06:15.929Z,8.00
2019-03-13T11:08:41.344Z,8.00
2019-03-13T11:10:54.276Z,8.10
2019-03-13T11:13:08.999Z,8.10
2019-03-13T11:15:33.906Z,8.10
2019-03-13T11:17:46.245Z,8.20
2019-03-13T11:20:09.667Z,8.20
2019-03-13T11:22:33.355Z,8.30
2019-03-13T11:27:39.112Z,8.40
2019-03-13T11:30:05.745Z,8.50
2019-03-13T11:32:33.572Z,8.40
2019-03-13T11:34:56.999Z,8.50
2019-03-13T11:37:20.657Z,8.50
2019-03-13T11:39:48.088Z,8.40
2019-03-13T11:42:14.449Z,8.50
2019-03-13T11:44:36.417Z,8.40
2019-03-13T11:46:53.758Z,8.20
2019-03-13T11:52:07.114Z,8.20
2019-03-13T11:54:30.646Z,8.20
2019-03-13T11:56:55.725Z,8.10
2019-03-13T11:59:19.179Z,8.10
2019-03-13T12:04:35.823Z,8.10
2019-03-13T12:07:18.868Z,8.20
2019-03-13T12:09:31.270Z,8.20
2019-03-13T12:11:45.836Z,8.20
2019-03-13T12:14:09.268Z,8.30
2019-03-13T12:16:32.763Z,8.20
2019-03-13T12:18:56.180Z,8.20
2019-03-13T12:21:22.712Z,8.30
2019-03-13T12:23:47.359Z,8.30
2019-03-13T12:26:31.178Z,8.20
2019-03-13T12:28:54.544Z,8.10
2019-03-13T12:31:14.051Z,8.00
2019-03-13T12:33:39.307Z,8.00
2019-03-13T12:36:12.367Z,7.90
2019-03-13T12:38:38.687Z,7.70
2019-03-13T12:41:08.069Z,7.60
2019-03-13T12:43:31.368Z,7.50
2019-03-13T12:45:54.222Z,7.40
2019-03-13T12:48:32.994Z,7.40
2019-03-13T12:53:25.494Z,7.40
2019-03-13T12:55:40.494Z,7.50
2019-03-13T12:58:03.886Z,7.40
2019-03-13T13:00:34.031Z,7.40
2019-03-13T13:02:50.885Z,7.50
2019-03-13T13:05:23.405Z,7.50
2019-03-13T13:07:47.441Z,7.50
2019-03-13T13:10:11.867Z,7.60
2019-03-13T13:12:35.272Z,7.60
2019-03-13T13:14:58.989Z,7.60
2019-03-13T13:17:15.550Z,7.70
2019-03-13T13:19:20.043Z,7.80
2019-03-13T13:21:24.873Z,7.90
2019-03-13T13:23:30.705Z,7.90
2019-03-13T13:25:35.468Z,8.00
2019-03-13T13:27:42.691Z,8.00
2019-03-13T13:29:49.218Z,8.00
2019-03-13T13:31:55.367Z,8.00
2019-03-13T13:34:00.367Z,8.00
2019-03-13T13:36:31.903Z,8.00
2019-03-13T13:38:57.717Z,8.00
2019-03-13T13:41:02.200Z,8.00
2019-03-13T13:45:48.400Z,8.00
2019-03-13T13:47:53.434Z,8.00
2019-03-13T13:55:28.228Z,8.20
2019-03-13T13:57:37.658Z,8.10
2019-03-13T13:59:43.448Z,8.10
2019-03-13T14:01:48.439Z,8.00
2019-03-13T14:03:56.331Z,7.90
2019-03-13T14:06:02.287Z,7.90
2019-03-13T14:08:26.391Z,8.00
2019-03-13T14:10:31.004Z,8.00
2019-03-13T14:12:54.514Z,8.00
2019-03-13T14:14:59.122Z,8.10
2019-03-13T14:17:04.239Z,8.10
2019-03-13T14:19:27.683Z,8.10
2019-03-13T14:21:32.365Z,8.20
2019-03-13T14:23:40.376Z,8.20
2019-03-13T14:25:45.234Z,8.20
2019-03-13T14:28:08.958Z,8.30
2019-03-13T14:30:14.148Z,8.30
2019-03-13T14:32:23.898Z,8.40
2019-03-13T14:34:28.418Z,8.40
2019-03-13T14:36:36.168Z,8.30
2019-03-13T14:38:40.918Z,8.30
2019-03-13T14:41:04.959Z,8.30
2019-03-13T14:43:09.413Z,8.10
2019-03-13T14:45:31.045Z,8.10
2019-03-13T14:47:46.727Z,8.00
2019-03-13T14:49:51.783Z,7.90
2019-03-13T14:54:26.693Z,7.70
2019-03-13T14:56:34.267Z,7.60
2019-03-13T14:58:39.095Z,7.60
2019-03-13T15:00:45.778Z,7.60
2019-03-13T15:02:51.556Z,7.60
2019-03-13T15:04:56.214Z,7.60
2019-03-13T15:07:03.785Z,7.50
2019-03-13T15:09:12.481Z,7.50
2019-03-13T15:11:17.549Z,7.40
2019-03-13T15:13:22.343Z,7.40
2019-03-13T15:15:27.891Z,7.40
2019-03-13T15:17:53.194Z,7.40
2019-03-13T15:22:10.442Z,7.40
2019-03-13T15:24:18.189Z,7.40
2019-03-13T15:26:43.413Z,7.50
2019-03-13T15:28:48.453Z,7.50
2019-03-13T15:30:55.411Z,7.50
2019-03-13T15:33:00.024Z,7.40
2019-03-13T15:35:07.395Z,7.40
2019-03-13T15:37:12.717Z,7.50
2019-03-13T15:39:17.709Z,7.50
2019-03-13T15:41:22.552Z,7.50
2019-03-13T15:43:29.946Z,7.60
2019-03-13T15:45:36.451Z,7.50
2019-03-13T15:47:41.924Z,7.40
2019-03-13T15:49:47.097Z,7.40
2019-03-13T15:52:10.588Z,7.20
2019-03-13T15:54:15.043Z,7.10
2019-03-13T15:56:20.197Z,6.80
2019-03-13T15:58:25.110Z,6.60
2019-03-13T16:00:32.509Z,6.50
2019-03-13T16:02:56.210Z,6.40
2019-03-13T16:05:04.754Z,6.30
2019-03-13T16:07:09.299Z,6.40
2019-03-13T16:09:15.520Z,6.40
2019-03-13T16:11:20.368Z,6.40
2019-03-13T16:13:28.643Z,6.40
2019-03-13T16:15:53.566Z,6.40
2019-03-13T16:17:59.533Z,6.20
2019-03-13T16:20:04.471Z,6.00
2019-03-13T16:22:09.937Z,6.00
2019-03-13T16:24:16.918Z,6.00
2019-03-13T16:26:21.574Z,5.90
2019-03-13T16:28:27.577Z,5.90
2019-03-13T16:30:53.494Z,5.90
2019-03-13T16:32:59.358Z,5.90
2019-03-13T16:35:26.236Z,5.80
2019-03-13T16:37:29.300Z,5.80
2019-03-13T16:39:37.393Z,5.80
2019-03-13T16:42:00.875Z,5.80
2019-03-13T16:44:19.689Z,5.80
2019-03-13T16:46:38.772Z,5.70
2019-03-13T16:48:55.831Z,5.70
2019-03-13T16:51:05.214Z,5.70
2019-03-13T16:53:11.181Z,5.70
2019-03-13T16:55:18.481Z,5.70
2019-03-13T16:57:24.401Z,5.80
2019-03-13T16:59:39.219Z,5.80
2019-03-13T17:01:49.565Z,5.70
2019-03-13T17:03:55.176Z,5.70
2019-03-13T17:06:04.130Z,5.80
2019-03-13T17:08:12.596Z,5.80
2019-03-13T17:10:18.190Z,5.80
2019-03-13T17:12:24.668Z,5.80
2019-03-13T17:14:29.143Z,5.90
2019-03-13T17:16:36.120Z,6.00
2019-03-13T17:18:40.800Z,5.90
2019-03-13T17:20:45.337Z,5.90
2019-03-13T17:22:51.059Z,5.90
2019-03-13T17:24:57.123Z,5.90
2019-03-13T17:27:03.891Z,5.90
2019-03-13T17:29:08.392Z,5.90
2019-03-13T17:31:16.985Z,5.90
2019-03-13T17:33:24.337Z,5.90
2019-03-13T17:35:35.237Z,6.00
2019-03-13T17:37:40.405Z,6.00
2019-03-13T17:40:26.154Z,6.10
2019-03-13T17:42:31.096Z,6.10
2019-03-13T17:44:35.610Z,6.10
2019-03-13T17:46:41.210Z,6.20
2019-03-13T17:48:51.355Z,6.30
2019-03-13T17:50:59.884Z,6.30
2019-03-13T17:53:05.681Z,6.40
2019-03-13T17:55:15.750Z,6.30
2019-03-13T17:57:20.647Z,6.40
2019-03-13T17:59:28.079Z,6.40
2019-03-13T18:01:32.916Z,6.30
2019-03-13T18:03:41.838Z,6.30
2019-03-13T18:05:48.072Z,6.30
2019-03-13T18:07:52.783Z,6.40
2019-03-13T18:09:59.069Z,6.40
2019-03-13T18:12:03.581Z,6.50
2019-03-13T18:14:08.083Z,6.50
2019-03-13T18:16:30.464Z,6.60
2019-03-13T18:18:22.980Z,6.50
2019-03-13T18:20:28.638Z,6.60
2019-03-13T18:22:52.547Z,6.60
2019-03-13T18:24:57.151Z,6.60
2019-03-13T18:27:02.806Z,6.50
2019-03-13T18:29:31.147Z,6.50
2019-03-13T18:40:57.555Z,6.90
2019-03-13T18:43:07.921Z,6.80
2019-03-13T18:47:38.036Z,6.90
2019-03-13T18:49:46.352Z,6.90
2019-03-13T18:51:53.222Z,6.80
2019-03-13T18:53:58.081Z,7.00
2019-03-13T18:56:03.591Z,7.00
2019-03-13T18:58:14.350Z,6.90
2019-03-13T19:00:26.814Z,6.90
2019-03-13T19:02:51.637Z,6.90
2019-03-13T19:04:57.679Z,6.90
2019-03-13T19:07:02.624Z,6.80
2019-03-13T19:09:07.692Z,6.70
2019-03-13T19:13:58.294Z,6.80
2019-03-13T19:16:05.083Z,6.80
2019-03-13T19:18:10.584Z,6.70
2019-03-13T19:20:18.595Z,6.60
2019-03-13T19:22:24.526Z,6.70
2019-03-13T19:24:31.683Z,6.80
2019-03-13T19:26:40.560Z,6.70
2019-03-13T19:28:47.987Z,6.50
2019-03-13T19:30:52.572Z,6.50
2019-03-13T19:32:57.817Z,6.50
2019-03-13T19:35:03.075Z,6.50
2019-03-13T19:37:09.461Z,6.50
2019-03-13T19:39:16.617Z,6.40
2019-03-13T19:41:24.509Z,6.40
2019-03-13T19:43:29.263Z,6.50
2019-03-13T19:45:41.211Z,6.50
2019-03-13T19:50:38.885Z,6.50
2019-03-13T19:52:49.958Z,6.50
2019-03-13T19:55:03.442Z,6.40
2019-03-13T19:57:33.499Z,6.50
2019-03-13T19:59:46.607Z,6.50
2019-03-13T20:02:12.763Z,6.40
2019-03-13T20:04:21.276Z,6.50
2019-03-13T20:06:27.907Z,6.60
2019-03-13T20:08:38.018Z,6.50
2019-03-13T20:10:59.309Z,6.40
2019-03-13T20:13:09.699Z,6.50
2019-03-13T20:15:29.456Z,6.60
2019-03-13T20:17:41.700Z,6.60
2019-03-13T20:20:07.344Z,6.50
2019-03-13T20:22:27.352Z,6.50
2019-03-13T20:24:38.726Z,6.50
2019-03-13T20:26:49.352Z,6.50
2019-03-13T20:28:57.364Z,6.50
2019-03-13T20:33:36.144Z,6.40
2019-03-13T20:36:04.641Z,6.40
2019-03-13T20:38:25.664Z,6.40
2019-03-13T20:40:51.758Z,6.40
2019-03-13T20:46:03.359Z,6.40
2019-03-13T20:48:25.382Z,6.40
2019-03-13T20:50:37.637Z,6.50
2019-03-13T20:53:04.686Z,6.60
2019-03-13T20:55:34.607Z,6.60
2019-03-13T20:57:46.235Z,6.50
2019-03-13T20:59:57.342Z,6.50
2019-03-13T21:07:05.620Z,6.60
2019-03-13T21:09:15.819Z,6.60
2019-03-13T21:11:32.751Z,6.60
2019-03-13T21:13:44.532Z,6.60
2019-03-13T21:15:52.868Z,6.50
2019-03-13T21:18:03.638Z,6.60
2019-03-13T21:20:16.878Z,6.60
2019-03-13T21:22:27.060Z,6.50
2019-03-13T21:32:43.587Z,6.60
2019-03-13T21:34:51.111Z,6.50
2019-03-13T21:37:21.374Z,6.60
2019-03-13T21:39:39.705Z,6.70
2019-03-13T21:41:50.199Z,6.70
2019-03-13T21:44:02.437Z,6.60
2019-03-13T21:46:25.905Z,6.60
2019-03-13T21:49:07.733Z,6.60
2019-03-13T21:51:20.281Z,6.50
2019-03-13T21:53:32.380Z,6.50
2019-03-13T21:55:50.716Z,6.50
2019-03-13T21:57:58.938Z,6.50
2019-03-13T22:00:15.503Z,6.50
2019-03-13T22:02:32.530Z,6.60
2019-03-13T22:04:35.791Z,6.60
2019-03-13T22:06:53.609Z,6.50
2019-03-13T22:09:24.417Z,6.50
2019-03-13T22:14:06.395Z,6.40
2019-03-13T22:16:37.644Z,6.40
2019-03-13T22:18:58.678Z,6.40
2019-03-13T22:21:06.917Z,6.40
2019-03-13T22:28:35.298Z,6.60
2019-03-13T22:30:49.030Z,6.70
2019-03-13T22:33:37.413Z,6.60
2019-03-13T22:40:57.900Z,6.70
2019-03-13T22:43:07.239Z,6.70
2019-03-13T22:49:05.122Z,6.70
2019-03-13T22:58:36.413Z,6.70
2019-03-13T23:01:22.382Z,6.70
2019-03-13T23:03:45.678Z,6.50
2019-03-13T23:06:15.740Z,6.60
2019-03-13T23:08:40.009Z,6.60
2019-03-13T23:13:21.519Z,6.70
2019-03-13T23:15:30.258Z,6.70
2019-03-13T23:17:52.400Z,6.80
2019-03-13T23:20:00.558Z,6.70
2019-03-13T23:22:12.889Z,6.80
2019-03-13T23:24:17.814Z,6.80
2019-03-13T23:26:42.712Z,6.80
2019-03-13T23:28:49.218Z,6.80
2019-03-13T23:35:35.972Z,6.60
2019-03-13T23:37:40.847Z,6.60
2019-03-13T23:39:46.199Z,6.50
2019-03-13T23:42:10.126Z,6.40
2019-03-13T23:44:14.678Z,6.40
2019-03-13T23:46:20.004Z,6.40
2019-03-13T23:48:25.945Z,6.40
2019-03-13T23:50:35.340Z,6.40
2019-03-13T23:52:40.003Z,6.50
2019-03-13T23:54:46.868Z,6.50
2019-03-13T23:56:53.339Z,6.40
2019-03-13T23:58:58.600Z,6.40
